KMHE/MHE METAR and TAF weather

Enter ICAO airport designator
Station Type Date Time Source
KMHE METAR 2021/01/16 01:53 UTC NOAA

KMHE 160153Z AUTO 33018G26KT 10SM OVC019 M02/M06 A3000 RMK AO2 PK WND 33030/0056 SLP176 T10221061 TSNO


Station Type Date Time Source
KMHE Decoded METAR 2021/01/16 01:53 UTC NOAA

MITCHELL MUNICIPAL AIRPORT, SD, United States (KMHE) 43-46N 98-02W
Jan 15, 2021 - 08:53 PM EST / 2021.01.16 0153 UTC
Wind: from the NNW (330 degrees) at 21 MPH (18 KT) gusting to 30 MPH (26 KT):0
Visibility: 10 mile(s):0
Sky conditions: overcast
Temperature: 28.0 F (-2.2 C)
Windchill: 14 F (-10 C):1
Dew Point: 21.0 F (-6.1 C)
Relative Humidity: 74%
Pressure (altimeter): 30 in. Hg (1015 hPa)
ob: KMHE 160153Z AUTO 33018G26KT 10SM OVC019 M02/M06 A3000 RMK AO2 PK WND 33030/0056 SLP176 T10221061 TSNO
cycle: 2

Station Type Date Time Source
KMHE TAF UTC NOAA

Error!

Example: see airport list